Terminal Aerodrome Forecast
Issued by NWS Shreveport, LA

Home | Current Version | Previous Version | Text Only | Print | Product List | Glossary On
Versions: 1 2 3 4 5 6 7 8 9 10 11 12 13 14 15 16 17
761
FTUS44 KSHV 171744
TAFELD
TAF
KELD 171744Z 1718/1818 19011KT P6SM BKN018
     FM172100 19011KT P6SM BKN025
     FM172300 18010KT P6SM SCT030 BKN035
     FM180400 18012KT P6SM BKN025
     FM180800 19012KT P6SM BKN018
     FM181500 21013KT P6SM BKN015=

USA.gov is the U.S. government's official web portal to all federal, state and local government web resources and services.